Time;durP1;ratioP1;P1;durP2;ratioP2;P2;SDS_P1;SDS_P2;PMS_P1;PMS_P2;Temp;Humidity;BMP_temperature;BMP_pressure;BME280_temperature;BME280_humidity;BME280_pressure;Samples;Min_cycle;Max_cycle;Signal;HPM_P1;HPM_P2
2023/10/06 00:02:30;;;;;;;0.10;0.10;;;13.90;99.90;;;;;;5081407;28;20207;-83
2023/10/06 00:04:56;;;;;;;0.10;0.10;;;13.90;99.90;;;;;;5063526;28;20226;-82
2023/10/06 00:07:23;;;;;;;0.10;0.10;;;13.80;99.90;;;;;;5080979;28;20451;-82
2023/10/06 00:09:48;;;;;;;0.10;0.10;;;13.80;99.90;;;;;;5078436;28;20216;-82
2023/10/06 00:12:16;;;;;;;0.10;0.10;;;13.80;99.90;;;;;;5085170;28;20474;-81
2023/10/06 00:14:48;;;;;;;0.10;0.10;;;13.80;99.90;;;;;;5058822;28;20997;-81
2023/10/06 00:17:17;;;;;;;0.10;0.10;;;13.80;99.90;;;;;;5054169;28;20474;-83
2023/10/06 00:19:44;;;;;;;0.10;0.10;;;13.80;99.90;;;;;;5082645;28;20542;-81
2023/10/06 00:22:17;;;;;;;0.10;0.10;;;13.80;99.90;;;;;;5081651;28;20452;-81
2023/10/06 00:24:50;;;;;;;0.10;0.10;;;13.90;99.90;;;;;;5071166;28;20430;-81
2023/10/06 00:27:23;;;;;;;0.10;0.10;;;13.90;99.90;;;;;;5073073;28;20523;-82
2023/10/06 00:29:54;;;;;;;0.10;0.10;;;13.90;99.90;;;;;;5083432;28;20493;-82
2023/10/06 00:32:24;;;;;;;0.10;0.10;;;13.90;99.90;;;;;;5077068;28;21237;-82
2023/10/06 00:34:52;;;;;;;0.10;0.10;;;13.90;99.90;;;;;;5058955;28;20443;-81
2023/10/06 00:37:24;;;;;;;0.10;0.10;;;13.90;99.90;;;;;;5072659;28;20510;-82
2023/10/06 00:39:54;;;;;;;0.10;0.10;;;13.90;99.90;;;;;;5085960;28;20993;-82
2023/10/06 00:42:21;;;;;;;0.10;0.10;;;13.90;99.90;;;;;;5075756;28;20459;-82
2023/10/06 00:44:47;;;;;;;0.10;0.10;;;14.00;99.90;;;;;;5062656;28;20519;-82
2023/10/06 00:47:13;;;;;;;0.10;0.10;;;14.00;99.90;;;;;;5059154;28;20523;-82
2023/10/06 00:49:43;;;;;;;0.10;0.10;;;14.10;99.90;;;;;;5069519;28;20242;-81
2023/10/06 00:52:11;;;;;;;0.10;0.10;;;14.00;99.90;;;;;;5090963;28;20917;-83
2023/10/06 00:54:37;;;;;;;0.10;0.10;;;14.00;99.90;;;;;;5077283;28;20752;-82
2023/10/06 00:57:08;;;;;;;0.10;0.10;;;14.10;99.90;;;;;;5063823;28;20431;-83
2023/10/06 00:59:36;;;;;;;0.10;0.10;;;14.10;99.90;;;;;;5051604;28;21018;-82
2023/10/06 01:02:02;;;;;;;0.10;0.10;;;14.10;99.90;;;;;;5059659;28;20435;-82
2023/10/06 01:04:34;;;;;;;0.10;0.10;;;14.10;99.90;;;;;;5066487;28;20424;-80
2023/10/06 01:07:00;;;;;;;0.10;0.10;;;14.10;99.90;;;;;;5072668;28;20765;-82
2023/10/06 01:09:33;;;;;;;0.10;0.10;;;14.20;99.90;;;;;;5069796;28;20438;-81
2023/10/06 01:11:58;;;;;;;0.10;0.10;;;14.20;99.90;;;;;;5059608;28;20186;-82
2023/10/06 01:14:27;;;;;;;0.10;0.10;;;14.20;99.90;;;;;;5057785;28;20972;-82
2023/10/06 01:17:04;;;;;;;0.10;0.10;;;14.20;99.90;;;;;;5056913;28;20277;-82
2023/10/06 01:19:33;;;;;;;0.10;0.10;;;14.20;99.90;;;;;;5050925;28;20555;-81
2023/10/06 01:22:13;;;;;;;0.10;0.10;;;14.20;99.90;;;;;;5054580;28;20494;-82
2023/10/06 01:24:39;;;;;;;0.10;0.10;;;14.20;99.90;;;;;;5053566;28;20449;-82
2023/10/06 01:27:10;;;;;;;0.10;0.10;;;14.20;99.90;;;;;;5054141;28;20433;-82
2023/10/06 01:29:36;;;;;;;0.10;0.10;;;14.20;99.90;;;;;;5069936;28;20428;-82
2023/10/06 01:32:05;;;;;;;0.10;0.10;;;14.30;99.90;;;;;;5066088;28;20974;-83
2023/10/06 01:34:38;;;;;;;0.10;0.10;;;14.30;99.90;;;;;;5071719;28;20272;-82
2023/10/06 01:37:07;;;;;;;0.10;0.10;;;14.30;99.90;;;;;;5068029;28;20444;-82
2023/10/06 01:39:36;;;;;;;0.10;0.10;;;14.30;99.90;;;;;;5062511;28;20476;-82
2023/10/06 01:42:13;;;;;;;0.10;0.10;;;14.30;99.90;;;;;;5061217;28;20501;-82
2023/10/06 01:44:39;;;;;;;0.10;0.10;;;14.30;99.90;;;;;;5052348;28;20490;-80
2023/10/06 01:47:04;;;;;;;0.10;0.10;;;14.30;99.90;;;;;;5061385;28;20432;-84
2023/10/06 01:49:31;;;;;;;0.10;0.10;;;14.20;99.90;;;;;;5066567;28;20183;-83
2023/10/06 01:51:56;;;;;;;0.10;0.10;;;14.20;99.90;;;;;;5051841;28;20187;-83
2023/10/06 01:54:27;;;;;;;0.10;0.10;;;14.20;99.90;;;;;;5052046;28;20436;-83
2023/10/06 01:56:54;;;;;;;0.10;0.10;;;14.20;99.90;;;;;;5055096;28;20240;-84
2023/10/06 01:59:20;;;;;;;0.10;0.10;;;14.20;99.90;;;;;;5066712;28;20570;-82
2023/10/06 02:01:47;;;;;;;0.10;0.10;;;14.20;99.90;;;;;;5089382;28;20423;-84
2023/10/06 02:04:18;;;;;;;0.10;0.10;;;14.20;99.90;;;;;;5088385;28;20487;-84
2023/10/06 02:06:51;;;;;;;0.10;0.10;;;14.20;99.90;;;;;;5055883;28;20845;-82
2023/10/06 02:09:18;;;;;;;0.10;0.10;;;14.20;99.90;;;;;;5061612;28;20443;-83
2023/10/06 02:11:50;;;;;;;0.10;0.10;;;14.10;99.90;;;;;;5089118;28;20439;-83
2023/10/06 02:14:17;;;;;;;0.10;0.10;;;14.10;99.90;;;;;;5091043;28;20423;-84
2023/10/06 02:16:46;;;;;;;0.10;0.10;;;14.10;99.90;;;;;;5085336;28;20436;-85
2023/10/06 02:19:16;;;;;;;0.10;0.10;;;14.10;99.90;;;;;;5055114;28;20463;-84
2023/10/06 02:21:50;;;;;;;0.10;0.10;;;14.10;99.90;;;;;;5087043;28;20431;-84
2023/10/06 02:24:16;;;;;;;0.10;0.10;;;14.10;99.90;;;;;;5088791;28;20590;-86
2023/10/06 02:26:43;;;;;;;0.10;0.10;;;14.10;99.90;;;;;;5072766;28;20538;-85
2023/10/06 02:29:22;;;;;;;0.10;0.10;;;14.00;99.90;;;;;;5064668;28;20193;-83
2023/10/06 02:31:51;;;;;;;0.10;0.10;;;14.00;99.90;;;;;;5080448;28;20523;-84
2023/10/06 02:34:29;;;;;;;0.10;0.10;;;14.00;99.90;;;;;;5062175;28;20428;-83
2023/10/06 02:36:56;;;;;;;0.10;0.10;;;14.00;99.90;;;;;;5080905;28;20468;-84
2023/10/06 02:39:21;;;;;;;0.10;0.10;;;14.00;99.90;;;;;;5055066;28;20460;-85
2023/10/06 02:41:47;;;;;;;0.10;0.10;;;14.00;99.90;;;;;;5053882;28;20437;-85
2023/10/06 02:44:22;;;;;;;0.10;0.10;;;14.00;99.90;;;;;;5084273;28;20349;-84
2023/10/06 02:46:50;;;;;;;0.10;0.10;;;14.00;99.90;;;;;;5088725;28;20275;-84
2023/10/06 02:49:24;;;;;;;0.10;0.10;;;14.00;99.90;;;;;;5089879;28;20427;-84
2023/10/06 02:51:50;;;;;;;0.10;0.10;;;14.00;99.90;;;;;;5052796;28;20443;-83
2023/10/06 02:56:43;;;;;;;0.10;0.10;;;14.00;99.90;;;;;;5081594;28;20435;-85
2023/10/06 02:59:20;;;;;;;0.10;0.10;;;14.00;99.90;;;;;;5069522;28;20225;-84
2023/10/06 03:01:51;;;;;;;0.10;0.10;;;14.00;99.90;;;;;;5063049;28;20446;-84
2023/10/06 03:04:18;;;;;;;0.10;0.10;;;14.00;99.90;;;;;;5073697;28;20805;-84
2023/10/06 03:06:53;;;;;;;0.10;0.10;;;13.90;99.90;;;;;;5086586;28;20469;-84
2023/10/06 03:09:20;;;;;;;0.10;0.10;;;13.90;99.90;;;;;;5070858;28;20479;-84
2023/10/06 03:11:49;;;;;;;0.20;0.20;;;14.00;99.90;;;;;;5053769;28;20428;-85
2023/10/06 03:14:24;;;;;;;0.10;0.10;;;14.00;99.90;;;;;;5072547;28;20808;-86
2023/10/06 03:16:53;;;;;;;0.10;0.10;;;13.90;99.90;;;;;;5081354;28;20436;-82
2023/10/06 03:19:25;;;;;;;0.10;0.10;;;13.90;99.90;;;;;;5073083;28;20531;-85
2023/10/06 03:21:57;;;;;;;0.10;0.10;;;13.90;99.90;;;;;;5084064;28;20445;-85
2023/10/06 03:24:31;;;;;;;0.10;0.10;;;13.80;99.90;;;;;;5072076;28;20415;-85
2023/10/06 03:27:04;;;;;;;0.10;0.10;;;13.80;99.90;;;;;;5068820;28;20443;-85
2023/10/06 03:32:22;;;;;;;0.10;0.10;;;13.70;99.90;;;;;;5085714;28;20805;-87
2023/10/06 03:34:50;;;;;;;0.10;0.10;;;13.70;99.90;;;;;;5078642;28;20497;-87
2023/10/06 03:37:34;;;;;;;0.10;0.10;;;13.70;99.90;;;;;;5086511;28;20986;-83
2023/10/06 03:40:10;;;;;;;0.10;0.10;;;13.70;99.90;;;;;;5074271;28;20856;-84
2023/10/06 03:42:37;;;;;;;0.10;0.10;;;13.70;99.90;;;;;;5072118;28;20913;-88
2023/10/06 03:45:18;;;;;;;0.10;0.10;;;13.70;99.90;;;;;;5053120;28;20459;-87
2023/10/06 03:47:44;;;;;;;0.10;0.10;;;13.70;99.90;;;;;;5083290;28;20427;-84
2023/10/06 03:50:10;;;;;;;0.10;0.10;;;13.70;99.90;;;;;;5088188;28;20423;-84
2023/10/06 03:52:35;;;;;;;0.10;0.10;;;13.70;99.90;;;;;;5079001;28;20436;-85
2023/10/06 03:55:03;;;;;;;0.10;0.10;;;13.70;99.90;;;;;;5065900;28;20165;-82
2023/10/06 03:57:28;;;;;;;0.10;0.10;;;13.60;99.90;;;;;;5070307;28;20366;-83
2023/10/06 03:59:55;;;;;;;0.10;0.10;;;13.70;99.90;;;;;;5059478;28;20550;-84
2023/10/06 04:02:21;;;;;;;0.10;0.10;;;13.60;99.90;;;;;;5076611;28;20186;-81
2023/10/06 04:04:49;;;;;;;0.10;0.10;;;13.60;99.90;;;;;;5088504;28;21121;-85
2023/10/06 04:07:16;;;;;;;0.10;0.10;;;13.60;99.90;;;;;;5063407;28;20186;-86
2023/10/06 04:09:48;;;;;;;0.10;0.10;;;13.60;99.90;;;;;;5070470;28;20432;-86
2023/10/06 04:12:14;;;;;;;0.20;0.20;;;13.60;99.90;;;;;;5075459;28;20819;-83
2023/10/06 04:14:39;;;;;;;0.10;0.10;;;13.60;99.90;;;;;;5070721;28;20438;-85
2023/10/06 04:17:05;;;;;;;0.10;0.10;;;13.60;99.90;;;;;;5085277;28;20196;-82
2023/10/06 04:19:31;;;;;;;0.10;0.10;;;13.60;99.90;;;;;;5073721;28;20193;-84
2023/10/06 04:21:56;;;;;;;0.10;0.10;;;13.60;99.90;;;;;;5067093;28;20514;-82
2023/10/06 04:24:22;;;;;;;0.10;0.10;;;13.50;99.90;;;;;;5085882;28;20266;-84
2023/10/06 04:26:48;;;;;;;0.10;0.10;;;13.50;99.90;;;;;;5080832;28;20239;-83
2023/10/06 04:29:14;;;;;;;0.10;0.10;;;13.60;99.90;;;;;;5092917;28;20464;-84
2023/10/06 04:31:39;;;;;;;0.10;0.10;;;13.50;99.90;;;;;;5087510;28;20228;-86
2023/10/06 04:34:05;;;;;;;0.10;0.10;;;13.50;99.90;;;;;;5090183;28;20719;-86
2023/10/06 04:36:31;;;;;;;0.20;0.20;;;13.50;99.90;;;;;;5086590;28;20189;-85
2023/10/06 04:38:57;;;;;;;0.20;0.20;;;13.50;99.90;;;;;;5073222;28;20265;-88
2023/10/06 04:41:22;;;;;;;0.10;0.10;;;13.50;99.90;;;;;;5086129;28;21211;-85
2023/10/06 04:43:48;;;;;;;0.10;0.10;;;13.50;99.90;;;;;;5093337;28;20177;-84
2023/10/06 04:46:14;;;;;;;0.10;0.10;;;13.50;99.90;;;;;;5090087;28;20196;-84
2023/10/06 04:48:39;;;;;;;0.10;0.10;;;13.50;99.90;;;;;;5055162;28;20174;-85
2023/10/06 04:51:05;;;;;;;0.10;0.10;;;13.50;99.90;;;;;;5081299;28;20188;-82
2023/10/06 04:53:37;;;;;;;0.10;0.10;;;13.50;99.90;;;;;;5063930;28;20280;-87
2023/10/06 04:56:04;;;;;;;0.10;0.10;;;13.50;99.90;;;;;;5063386;28;20453;-86
2023/10/06 04:58:30;;;;;;;0.13;0.13;;;13.50;99.90;;;;;;5071373;28;20982;-82
2023/10/06 05:01:00;;;;;;;0.10;0.10;;;13.50;99.90;;;;;;5085204;28;20476;-84
2023/10/06 05:03:26;;;;;;;0.10;0.10;;;13.50;99.90;;;;;;5063097;28;20428;-85
2023/10/06 05:05:55;;;;;;;0.10;0.10;;;13.50;99.90;;;;;;5079355;28;20428;-87
2023/10/06 05:08:21;;;;;;;0.10;0.10;;;13.50;99.90;;;;;;5077848;28;20946;-85
2023/10/06 05:10:47;;;;;;;0.10;0.10;;;13.50;99.90;;;;;;5080868;28;20461;-84
2023/10/06 05:13:14;;;;;;;0.10;0.10;;;13.50;99.90;;;;;;5077582;28;20915;-85
2023/10/06 05:15:41;;;;;;;0.10;0.10;;;13.60;99.90;;;;;;5086309;28;20268;-87
2023/10/06 05:18:07;;;;;;;0.10;0.10;;;13.60;99.90;;;;;;5075442;28;20466;-84
2023/10/06 05:20:35;;;;;;;0.10;0.10;;;13.60;99.90;;;;;;5065497;28;20482;-84
2023/10/06 05:23:07;;;;;;;0.10;0.10;;;13.60;99.90;;;;;;5059418;28;20188;-85
2023/10/06 05:25:33;;;;;;;0.10;0.10;;;13.70;99.90;;;;;;5066880;28;20478;-84
2023/10/06 05:27:59;;;;;;;0.10;0.10;;;13.70;99.90;;;;;;5072454;28;20853;-84
2023/10/06 05:30:28;;;;;;;0.10;0.10;;;13.70;99.90;;;;;;5076278;28;20420;-88
2023/10/06 05:32:58;;;;;;;0.10;0.10;;;13.60;99.90;;;;;;5086251;28;20211;-85
2023/10/06 05:35:27;;;;;;;0.10;0.10;;;13.60;99.90;;;;;;5072248;28;21325;-83
2023/10/06 05:37:55;;;;;;;0.10;0.10;;;13.50;99.90;;;;;;5079987;28;20454;-88
2023/10/06 05:40:21;;;;;;;0.10;0.10;;;13.40;99.90;;;;;;5070493;28;20510;-85
2023/10/06 05:42:50;;;;;;;0.10;0.10;;;13.50;99.90;;;;;;5070711;28;20469;-81
2023/10/06 05:45:18;;;;;;;0.20;0.20;;;13.40;99.90;;;;;;5054701;28;20516;-83
2023/10/06 05:47:48;;;;;;;0.10;0.10;;;13.30;99.90;;;;;;5085498;28;20493;-83
2023/10/06 05:50:19;;;;;;;0.10;0.10;;;13.20;99.90;;;;;;5080023;28;20798;-83
2023/10/06 05:52:51;;;;;;;0.10;0.10;;;13.20;99.90;;;;;;5070482;28;20443;-82
2023/10/06 05:55:20;;;;;;;0.10;0.10;;;13.20;99.90;;;;;;5064732;28;20456;-80
2023/10/06 05:57:55;;;;;;;0.20;0.20;;;13.20;99.90;;;;;;5064165;28;20440;-84
2023/10/06 06:00:29;;;;;;;0.10;0.10;;;13.10;99.90;;;;;;5059218;28;20579;-81
2023/10/06 06:02:59;;;;;;;0.20;0.20;;;13.10;99.90;;;;;;5063184;28;20439;-81
2023/10/06 06:05:29;;;;;;;0.10;0.10;;;13.10;99.90;;;;;;5076599;28;20447;-81
2023/10/06 06:07:55;;;;;;;0.10;0.10;;;13.10;99.90;;;;;;5066409;28;20420;-81
2023/10/06 06:10:21;;;;;;;0.10;0.10;;;13.10;99.90;;;;;;5071428;28;20424;-81
2023/10/06 06:12:48;;;;;;;0.20;0.20;;;13.10;99.90;;;;;;5062344;28;20505;-82
2023/10/06 06:15:13;;;;;;;0.10;0.10;;;13.10;99.90;;;;;;5071921;28;20634;-82
2023/10/06 06:17:40;;;;;;;0.10;0.10;;;13.10;99.90;;;;;;5067680;28;20496;-82
2023/10/06 06:20:14;;;;;;;0.20;0.20;;;13.00;99.90;;;;;;5088502;28;20974;-80
2023/10/06 06:22:42;;;;;;;0.10;0.10;;;13.00;99.90;;;;;;5087043;28;20435;-81
2023/10/06 06:25:09;;;;;;;0.10;0.10;;;13.00;99.90;;;;;;5068127;28;20447;-84
2023/10/06 06:27:34;;;;;;;0.20;0.20;;;13.00;99.90;;;;;;5091371;28;20430;-83
2023/10/06 06:30:00;;;;;;;0.20;0.20;;;13.00;99.90;;;;;;5082919;28;20429;-80
2023/10/06 06:32:25;;;;;;;0.10;0.10;;;13.00;99.90;;;;;;5077752;28;20261;-80
2023/10/06 06:34:53;;;;;;;0.20;0.20;;;13.00;99.90;;;;;;5087080;28;20192;-82
2023/10/06 06:37:20;;;;;;;0.10;0.10;;;13.00;99.90;;;;;;5052912;28;20194;-81
2023/10/06 06:39:46;;;;;;;0.20;0.20;;;13.00;99.90;;;;;;5085242;28;20451;-82
2023/10/06 06:42:12;;;;;;;0.20;0.20;;;13.10;99.90;;;;;;5076006;28;20447;-80
2023/10/06 06:44:37;;;;;;;0.20;0.20;;;13.00;99.90;;;;;;5076140;28;20169;-81
2023/10/06 06:47:03;;;;;;;0.10;0.10;;;13.00;99.90;;;;;;5074949;28;20934;-80
2023/10/06 06:49:29;;;;;;;0.20;0.20;;;13.00;99.90;;;;;;5090412;28;20555;-81
2023/10/06 06:51:58;;;;;;;0.10;0.10;;;13.00;99.90;;;;;;5085278;28;20190;-81
2023/10/06 06:54:24;;;;;;;0.20;0.20;;;13.00;99.90;;;;;;5078986;28;20439;-79
2023/10/06 06:56:50;;;;;;;0.10;0.10;;;13.00;99.90;;;;;;5082111;28;20446;-79
2023/10/06 06:59:17;;;;;;;0.10;0.10;;;13.00;99.90;;;;;;5078013;28;20479;-80
2023/10/06 07:01:42;;;;;;;0.10;0.10;;;13.00;99.90;;;;;;5064356;28;20188;-79
2023/10/06 07:04:09;;;;;;;0.20;0.20;;;12.90;99.90;;;;;;5078223;28;20448;-79
2023/10/06 07:06:35;;;;;;;0.10;0.10;;;13.00;99.90;;;;;;5083685;28;20182;-78
2023/10/06 07:09:02;;;;;;;0.10;0.10;;;13.00;99.90;;;;;;5078957;28;20432;-78
2023/10/06 07:11:27;;;;;;;0.20;0.20;;;12.90;99.90;;;;;;5087874;28;20497;-78
2023/10/06 07:13:55;;;;;;;0.20;0.20;;;12.90;99.90;;;;;;5089853;28;21112;-78
2023/10/06 07:16:24;;;;;;;0.10;0.10;;;12.90;99.90;;;;;;5078531;28;20184;-79
2023/10/06 07:18:53;;;;;;;0.20;0.20;;;12.90;99.90;;;;;;5084243;28;20509;-79
2023/10/06 07:21:18;;;;;;;0.10;0.10;;;12.90;99.90;;;;;;5071158;28;20479;-80
2023/10/06 07:23:44;;;;;;;0.20;0.20;;;12.90;99.90;;;;;;5084035;28;21048;-82
2023/10/06 07:26:11;;;;;;;0.20;0.20;;;12.80;99.90;;;;;;5089354;28;20322;-79
2023/10/06 07:28:39;;;;;;;0.10;0.10;;;12.90;99.90;;;;;;5059410;28;20649;-81
2023/10/06 07:31:12;;;;;;;0.10;0.10;;;12.90;99.90;;;;;;5082680;28;20424;-81
2023/10/06 07:33:39;;;;;;;0.20;0.20;;;12.90;99.90;;;;;;5071213;28;20966;-79
2023/10/06 07:36:13;;;;;;;0.20;0.20;;;13.00;99.90;;;;;;5084721;28;20443;-79
2023/10/06 07:38:38;;;;;;;0.10;0.10;;;13.00;99.90;;;;;;5090793;28;20422;-81
2023/10/06 07:41:05;;;;;;;0.20;0.20;;;13.00;99.90;;;;;;5087641;28;20483;-79
2023/10/06 07:43:31;;;;;;;0.10;0.10;;;13.00;99.90;;;;;;5077991;28;20594;-79
2023/10/06 07:45:57;;;;;;;0.10;0.10;;;13.00;99.90;;;;;;5081381;28;20451;-80
2023/10/06 07:48:25;;;;;;;0.10;0.10;;;13.00;99.90;;;;;;5089803;28;20177;-78
2023/10/06 07:50:51;;;;;;;0.10;0.10;;;13.00;99.90;;;;;;5069936;28;20959;-78
2023/10/06 07:53:17;;;;;;;0.20;0.20;;;13.00;99.90;;;;;;5085042;28;20430;-78
2023/10/06 07:55:42;;;;;;;0.20;0.20;;;13.00;99.90;;;;;;5085816;28;20550;-80
2023/10/06 07:58:08;;;;;;;0.10;0.10;;;13.10;99.90;;;;;;5073639;28;20188;-78
2023/10/06 08:00:38;;;;;;;0.20;0.20;;;13.10;99.90;;;;;;5089271;28;20237;-80
2023/10/06 08:03:05;;;;;;;0.20;0.20;;;13.10;99.90;;;;;;5055468;28;20198;-83
2023/10/06 08:05:30;;;;;;;0.10;0.10;;;13.10;99.90;;;;;;5077974;28;20520;-78
2023/10/06 08:07:58;;;;;;;0.20;0.20;;;13.10;99.90;;;;;;5069753;28;20680;-81
2023/10/06 08:10:23;;;;;;;0.20;0.20;;;13.10;99.90;;;;;;5052678;28;20185;-82
2023/10/06 08:12:51;;;;;;;0.10;0.10;;;13.20;99.90;;;;;;5081657;28;20431;-82
2023/10/06 08:15:18;;;;;;;0.10;0.10;;;13.20;99.90;;;;;;5083488;28;20169;-82
2023/10/06 08:17:45;;;;;;;0.10;0.10;;;13.10;99.90;;;;;;5071226;28;20865;-83
2023/10/06 08:20:12;;;;;;;0.10;0.10;;;13.20;99.90;;;;;;5081783;28;20844;-82
2023/10/06 08:22:38;;;;;;;0.10;0.10;;;13.20;99.90;;;;;;5061945;28;20535;-81
2023/10/06 08:25:05;;;;;;;0.10;0.10;;;13.10;99.90;;;;;;5090012;28;20431;-81
2023/10/06 08:27:32;;;;;;;0.10;0.10;;;13.20;99.90;;;;;;5070702;28;20447;-83
2023/10/06 08:29:57;;;;;;;0.13;0.13;;;13.20;99.90;;;;;;5051698;28;20428;-83
2023/10/06 08:32:24;;;;;;;0.10;0.10;;;13.20;99.90;;;;;;5084243;28;20427;-83
2023/10/06 08:34:49;;;;;;;0.10;0.10;;;13.20;99.90;;;;;;5088619;28;20197;-83
2023/10/06 08:37:15;;;;;;;0.10;0.10;;;13.20;99.90;;;;;;5075516;28;20943;-83
2023/10/06 08:39:41;;;;;;;0.10;0.10;;;13.30;99.90;;;;;;5089274;28;20950;-83
2023/10/06 08:42:10;;;;;;;0.10;0.10;;;13.30;99.90;;;;;;5088455;28;20731;-85
2023/10/06 08:44:39;;;;;;;0.10;0.10;;;13.30;99.90;;;;;;5090654;28;20256;-84
2023/10/06 08:47:09;;;;;;;0.10;0.10;;;13.20;99.90;;;;;;5088366;28;20435;-82
2023/10/06 08:49:36;;;;;;;0.20;0.20;;;13.30;99.90;;;;;;5089474;28;20396;-86
2023/10/06 08:52:04;;;;;;;0.10;0.10;;;13.30;99.90;;;;;;5070640;28;20454;-85
2023/10/06 08:54:31;;;;;;;0.10;0.10;;;13.30;99.90;;;;;;5074533;28;20475;-82
2023/10/06 08:56:57;;;;;;;0.10;0.10;;;13.30;99.90;;;;;;5063515;28;20439;-86
2023/10/06 08:59:22;;;;;;;0.10;0.10;;;13.30;99.90;;;;;;5086235;28;20528;-83
2023/10/06 09:01:49;;;;;;;0.10;0.10;;;13.30;99.90;;;;;;5088661;28;20556;-84
2023/10/06 09:04:14;;;;;;;0.10;0.10;;;13.40;99.90;;;;;;5068308;28;20640;-83
2023/10/06 09:07:05;;;;;;;0.20;0.20;;;13.40;99.90;;;;;;5085378;28;20447;-82
2023/10/06 09:09:32;;;;;;;0.10;0.10;;;13.40;99.90;;;;;;5086654;28;20178;-81
2023/10/06 09:11:58;;;;;;;0.10;0.10;;;13.40;99.90;;;;;;5073732;28;20470;-82
2023/10/06 09:14:25;;;;;;;0.20;0.20;;;13.40;99.90;;;;;;5054827;28;20428;-83
2023/10/06 09:16:51;;;;;;;0.10;0.10;;;13.40;99.90;;;;;;5077871;28;20969;-84
2023/10/06 09:19:18;;;;;;;0.20;0.20;;;13.40;99.90;;;;;;5076670;28;20782;-83
2023/10/06 09:22:02;;;;;;;0.10;0.10;;;13.40;99.90;;;;;;5093015;28;20423;-86
2023/10/06 09:24:29;;;;;;;0.10;0.10;;;13.50;99.90;;;;;;5073541;28;20431;-82
2023/10/06 09:26:56;;;;;;;0.10;0.10;;;13.50;99.90;;;;;;5091292;28;20426;-88
2023/10/06 09:29:32;;;;;;;0.20;0.20;;;13.50;99.90;;;;;;5083100;28;20424;-84
2023/10/06 09:32:00;;;;;;;0.10;0.10;;;13.50;99.90;;;;;;5078072;28;20423;-85
2023/10/06 09:34:27;;;;;;;0.10;0.10;;;13.60;99.90;;;;;;5083363;28;20461;-81
2023/10/06 09:36:53;;;;;;;0.10;0.10;;;13.60;99.90;;;;;;5090725;28;20465;-83
2023/10/06 09:39:26;;;;;;;0.10;0.10;;;13.60;99.90;;;;;;5090376;28;20439;-86
2023/10/06 09:41:54;;;;;;;0.10;0.10;;;13.60;99.90;;;;;;5088335;28;20438;-85
2023/10/06 09:44:22;;;;;;;0.10;0.10;;;13.60;99.90;;;;;;5072828;28;20492;-86
2023/10/06 09:46:54;;;;;;;0.10;0.10;;;13.60;99.90;;;;;;5084160;28;21037;-83
2023/10/06 09:49:21;;;;;;;0.10;0.10;;;13.60;99.90;;;;;;5091468;28;20427;-83
2023/10/06 09:51:47;;;;;;;0.10;0.10;;;13.60;99.90;;;;;;5089317;28;20502;-86
2023/10/06 09:54:14;;;;;;;0.10;0.10;;;13.60;99.90;;;;;;5089711;28;20454;-82
2023/10/06 09:56:41;;;;;;;0.10;0.10;;;13.60;99.90;;;;;;5091361;28;20419;-82
2023/10/06 09:59:12;;;;;;;0.10;0.10;;;13.60;99.90;;;;;;5091891;28;20989;-81
2023/10/06 10:01:42;;;;;;;0.10;0.10;;;13.60;99.90;;;;;;5081282;28;20797;-82
2023/10/06 10:04:11;;;;;;;0.10;0.10;;;13.60;99.90;;;;;;5076497;28;20872;-83
2023/10/06 10:06:43;;;;;;;0.10;0.10;;;13.60;99.90;;;;;;5089735;28;20450;-83
2023/10/06 10:09:15;;;;;;;0.10;0.10;;;13.70;99.90;;;;;;5091939;28;20784;-81
2023/10/06 10:11:46;;;;;;;0.10;0.10;;;13.70;99.90;;;;;;5074166;28;20826;-84
2023/10/06 10:14:32;;;;;;;0.10;0.10;;;13.70;99.90;;;;;;5086619;28;20423;-84
2023/10/06 10:17:31;;;;;;;0.10;0.10;;;13.70;99.90;;;;;;5091064;28;20431;-85
2023/10/06 10:19:58;;;;;;;0.10;0.10;;;13.70;99.90;;;;;;5078039;28;20467;-85
2023/10/06 10:22:24;;;;;;;0.10;0.10;;;13.70;99.90;;;;;;5058169;28;20448;-85
2023/10/06 10:24:50;;;;;;;0.20;0.20;;;13.80;99.90;;;;;;5080796;28;20465;-84
2023/10/06 10:27:22;;;;;;;0.10;0.10;;;13.80;99.90;;;;;;5071144;28;20420;-84
2023/10/06 10:29:49;;;;;;;0.10;0.10;;;13.80;99.90;;;;;;5085901;28;20537;-85
2023/10/06 10:32:17;;;;;;;0.10;0.10;;;13.80;99.90;;;;;;5077320;28;20454;-84
2023/10/06 10:35:09;;;;;;;0.20;0.20;;;13.90;99.90;;;;;;5077042;28;20427;-84
2023/10/06 10:37:56;;;;;;;0.10;0.10;;;13.80;99.90;;;;;;5085229;28;20798;-85
2023/10/06 10:40:29;;;;;;;0.10;0.10;;;13.80;99.90;;;;;;5056403;28;20503;-85
2023/10/06 10:43:06;;;;;;;0.10;0.10;;;13.70;99.90;;;;;;5078986;28;20443;-83
2023/10/06 10:45:44;;;;;;;0.10;0.10;;;13.70;99.90;;;;;;5091439;28;20513;-84
2023/10/06 10:48:13;;;;;;;0.20;0.20;;;13.70;99.90;;;;;;5083993;28;20431;-84
2023/10/06 10:51:01;;;;;;;0.20;0.20;;;13.70;99.90;;;;;;5072910;28;20439;-85
2023/10/06 10:53:37;;;;;;;0.10;0.10;;;13.70;99.90;;;;;;5069885;28;20496;-86
2023/10/06 10:56:03;;;;;;;0.10;0.10;;;13.70;99.90;;;;;;5072967;28;20427;-85
2023/10/06 10:58:49;;;;;;;0.10;0.10;;;13.70;99.90;;;;;;5082720;28;20470;-85
2023/10/06 11:01:27;;;;;;;0.10;0.10;;;13.70;99.90;;;;;;5073382;28;21718;-85
2023/10/06 11:04:21;;;;;;;0.20;0.20;;;13.70;99.90;;;;;;5072703;28;21076;-85
2023/10/06 11:06:50;;;;;;;0.10;0.10;;;13.70;99.90;;;;;;5054865;28;20527;-87
2023/10/06 11:09:30;;;;;;;0.10;0.10;;;13.70;99.90;;;;;;5075142;28;20772;-84
2023/10/06 11:11:58;;;;;;;0.10;0.10;;;13.70;99.90;;;;;;5070699;28;20448;-85
2023/10/06 11:14:28;;;;;;;0.20;0.20;;;13.70;99.90;;;;;;5089019;28;20439;-85
2023/10/06 11:17:01;;;;;;;0.10;0.10;;;13.70;99.90;;;;;;5056752;28;20544;-84
2023/10/06 11:19:28;;;;;;;0.13;0.13;;;13.60;99.90;;;;;;5070408;28;20456;-86
2023/10/06 11:21:53;;;;;;;0.10;0.10;;;13.70;99.90;;;;;;5076112;28;20447;-85
2023/10/06 11:24:26;;;;;;;0.10;0.10;;;13.70;99.90;;;;;;5068640;28;20500;-85
2023/10/06 11:26:51;;;;;;;0.10;0.10;;;13.70;99.90;;;;;;5090170;28;20173;-87
2023/10/06 11:29:30;;;;;;;0.10;0.10;;;13.70;99.90;;;;;;5089800;28;20498;-87
2023/10/06 11:32:00;;;;;;;0.10;0.10;;;13.80;99.90;;;;;;5062179;28;20186;-88
2023/10/06 11:34:26;;;;;;;0.10;0.10;;;13.80;99.90;;;;;;5085774;28;20996;-88
2023/10/06 11:36:53;;;;;;;0.10;0.10;;;13.80;99.90;;;;;;5084318;28;20431;-88
2023/10/06 11:39:23;;;;;;;0.10;0.10;;;13.80;99.90;;;;;;5069218;28;20730;-87
2023/10/06 11:41:52;;;;;;;0.10;0.10;;;13.90;99.90;;;;;;5062247;28;20447;-83
2023/10/06 11:44:19;;;;;;;0.10;0.10;;;13.90;99.90;;;;;;5078732;28;20504;-84
2023/10/06 11:46:49;;;;;;;0.10;0.10;;;13.90;99.90;;;;;;5055899;28;20466;-84
2023/10/06 11:49:19;;;;;;;0.10;0.10;;;14.00;99.90;;;;;;5078869;28;20440;-85
2023/10/06 11:51:45;;;;;;;0.10;0.10;;;14.00;99.90;;;;;;5089699;28;20435;-86
2023/10/06 11:54:10;;;;;;;0.10;0.10;;;14.00;99.90;;;;;;5080299;28;20434;-89
2023/10/06 11:56:48;;;;;;;0.10;0.10;;;14.10;99.90;;;;;;5067583;28;20451;-86
2023/10/06 11:59:22;;;;;;;0.10;0.10;;;14.10;99.90;;;;;;5076380;28;20218;-85
2023/10/06 12:01:48;;;;;;;0.10;0.10;;;14.10;99.90;;;;;;5089275;28;21018;-83
2023/10/06 12:04:30;;;;;;;0.10;0.10;;;14.10;99.90;;;;;;5073825;28;20993;-85
2023/10/06 12:06:57;;;;;;;0.10;0.10;;;14.20;99.90;;;;;;5062824;28;20444;-87
2023/10/06 12:09:29;;;;;;;0.10;0.10;;;14.20;99.90;;;;;;5079037;28;20492;-85
2023/10/06 12:11:57;;;;;;;0.10;0.10;;;14.20;99.90;;;;;;5086189;28;20524;-86
2023/10/06 12:14:24;;;;;;;0.10;0.10;;;14.20;99.90;;;;;;5052584;28;20991;-85
2023/10/06 12:16:50;;;;;;;0.10;0.10;;;14.30;99.90;;;;;;5062533;28;20807;-85
2023/10/06 12:19:15;;;;;;;0.10;0.10;;;14.30;99.90;;;;;;5063049;28;20432;-86
2023/10/06 12:21:42;;;;;;;0.10;0.10;;;14.30;99.90;;;;;;5064147;28;20194;-87
2023/10/06 12:24:11;;;;;;;0.10;0.10;;;14.30;99.90;;;;;;5076887;28;20247;-85
2023/10/06 12:26:39;;;;;;;0.10;0.10;;;14.40;99.90;;;;;;5067398;28;20431;-87
2023/10/06 12:29:05;;;;;;;0.10;0.10;;;14.40;99.90;;;;;;5057183;28;20493;-86
2023/10/06 12:31:30;;;;;;;0.10;0.10;;;14.40;99.90;;;;;;5081235;28;20448;-90
2023/10/06 12:33:57;;;;;;;0.10;0.10;;;14.40;99.90;;;;;;5071510;28;20943;-84
2023/10/06 12:36:23;;;;;;;0.10;0.10;;;14.50;99.90;;;;;;5090183;28;20189;-85
2023/10/06 12:38:49;;;;;;;0.10;0.10;;;14.50;99.90;;;;;;5095201;28;20403;-86
2023/10/06 12:41:17;;;;;;;0.10;0.10;;;14.50;99.90;;;;;;5079786;28;20497;-84
2023/10/06 12:43:47;;;;;;;0.10;0.10;;;14.60;99.90;;;;;;5070059;28;20724;-85
2023/10/06 12:46:14;;;;;;;0.10;0.10;;;14.60;99.90;;;;;;5081443;28;20424;-87
2023/10/06 12:48:39;;;;;;;0.10;0.10;;;14.60;99.90;;;;;;5074575;28;20667;-85
2023/10/06 12:51:12;;;;;;;0.10;0.10;;;14.60;99.90;;;;;;5085259;28;20907;-86
2023/10/06 12:53:42;;;;;;;0.10;0.10;;;14.70;99.90;;;;;;5089166;28;20178;-85
2023/10/06 12:56:09;;;;;;;0.10;0.10;;;14.70;99.90;;;;;;5079262;28;20510;-85
2023/10/06 12:58:34;;;;;;;0.10;0.10;;;14.70;99.90;;;;;;5074005;28;20930;-89
2023/10/06 13:01:07;;;;;;;0.10;0.10;;;14.70;99.90;;;;;;5070253;28;20572;-87
2023/10/06 13:03:33;;;;;;;0.10;0.10;;;14.70;99.90;;;;;;5074719;28;20177;-87